sensor_id;sensor_type;location;lat;lon;timestamp;pressure;altitude;pressure_sealevel;temperature;humidity
74790;BME280;63318;52.406;13.416;2023-04-03T00:01:20;102656.66;;;0.94;67.51
74790;BME280;63318;52.406;13.416;2023-04-03T00:03:49;102655.17;;;0.93;67.46
74790;BME280;63318;52.406;13.416;2023-04-03T00:06:17;102655.92;;;0.91;67.36
74790;BME280;63318;52.406;13.416;2023-04-03T00:08:46;102659.67;;;0.90;67.71
74790;BME280;63318;52.406;13.416;2023-04-03T00:11:15;102660.94;;;0.88;67.74
74790;BME280;63318;52.406;13.416;2023-04-03T00:13:44;102660.55;;;0.89;67.58
74790;BME280;63318;52.406;13.416;2023-04-03T00:16:13;102657.30;;;0.86;67.71
74790;BME280;63318;52.406;13.416;2023-04-03T00:18:44;102660.01;;;0.85;67.83
74790;BME280;63318;52.406;13.416;2023-04-03T00:21:13;102662.49;;;0.84;67.55
74790;BME280;63318;52.406;13.416;2023-04-03T00:23:42;102663.54;;;0.83;67.65
74790;BME280;63318;52.406;13.416;2023-04-03T00:26:10;102665.35;;;0.81;67.69
74790;BME280;63318;52.406;13.416;2023-04-03T00:28:39;102662.98;;;0.80;68.22
74790;BME280;63318;52.406;13.416;2023-04-03T00:31:07;102665.65;;;0.79;68.09
74790;BME280;63318;52.406;13.416;2023-04-03T00:33:36;102667.59;;;0.78;68.18
74790;BME280;63318;52.406;13.416;2023-04-03T00:36:09;102668.81;;;0.76;67.94
74790;BME280;63318;52.406;13.416;2023-04-03T00:38:38;102667.52;;;0.75;68.13
74790;BME280;63318;52.406;13.416;2023-04-03T00:41:07;102668.48;;;0.73;68.09
74790;BME280;63318;52.406;13.416;2023-04-03T00:43:36;102671.23;;;0.70;67.84
74790;BME280;63318;52.406;13.416;2023-04-03T00:46:04;102672.94;;;0.68;67.99
74790;BME280;63318;52.406;13.416;2023-04-03T00:48:35;102668.55;;;0.67;68.36
74790;BME280;63318;52.406;13.416;2023-04-03T00:51:06;102671.82;;;0.65;67.82
74790;BME280;63318;52.406;13.416;2023-04-03T00:53:38;102670.92;;;0.63;68.44
74790;BME280;63318;52.406;13.416;2023-04-03T00:56:10;102669.06;;;0.62;68.36
74790;BME280;63318;52.406;13.416;2023-04-03T00:58:43;102668.65;;;0.60;68.04
74790;BME280;63318;52.406;13.416;2023-04-03T01:01:16;102668.61;;;0.59;68.19
74790;BME280;63318;52.406;13.416;2023-04-03T01:03:46;102668.91;;;0.58;68.26
74790;BME280;63318;52.406;13.416;2023-04-03T01:06:19;102669.27;;;0.56;67.97
74790;BME280;63318;52.406;13.416;2023-04-03T01:08:51;102671.29;;;0.55;68.29
74790;BME280;63318;52.406;13.416;2023-04-03T01:11:20;102673.59;;;0.52;68.32
74790;BME280;63318;52.406;13.416;2023-04-03T01:13:49;102674.05;;;0.49;68.48
74790;BME280;63318;52.406;13.416;2023-04-03T01:16:17;102672.92;;;0.46;68.30
74790;BME280;63318;52.406;13.416;2023-04-03T01:18:46;102674.92;;;0.43;68.47
74790;BME280;63318;52.406;13.416;2023-04-03T01:21:56;102676.62;;;0.41;68.55
74790;BME280;63318;52.406;13.416;2023-04-03T01:24:35;102676.93;;;0.36;68.64
74790;BME280;63318;52.406;13.416;2023-04-03T01:27:06;102674.48;;;0.33;68.02
74790;BME280;63318;52.406;13.416;2023-04-03T01:29:36;102675.84;;;0.31;68.25
74790;BME280;63318;52.406;13.416;2023-04-03T01:32:06;102672.44;;;0.29;68.78
74790;BME280;63318;52.406;13.416;2023-04-03T01:34:35;102676.60;;;0.27;68.36
74790;BME280;63318;52.406;13.416;2023-04-03T01:37:03;102679.48;;;0.26;68.74
74790;BME280;63318;52.406;13.416;2023-04-03T01:39:31;102679.23;;;0.24;68.28
74790;BME280;63318;52.406;13.416;2023-04-03T01:41:59;102680.39;;;0.24;68.62
74790;BME280;63318;52.406;13.416;2023-04-03T01:44:28;102682.34;;;0.23;68.61
74790;BME280;63318;52.406;13.416;2023-04-03T01:46:57;102682.84;;;0.22;68.99
74790;BME280;63318;52.406;13.416;2023-04-03T01:49:26;102684.61;;;0.20;69.14
74790;BME280;63318;52.406;13.416;2023-04-03T01:51:54;102685.75;;;0.20;68.91
74790;BME280;63318;52.406;13.416;2023-04-03T01:54:22;102685.13;;;0.19;68.62
74790;BME280;63318;52.406;13.416;2023-04-03T01:56:51;102686.18;;;0.17;68.66
74790;BME280;63318;52.406;13.416;2023-04-03T01:59:19;102685.42;;;0.16;68.70
74790;BME280;63318;52.406;13.416;2023-04-03T02:01:48;102686.73;;;0.14;69.07
74790;BME280;63318;52.406;13.416;2023-04-03T02:04:16;102691.58;;;0.13;68.87
74790;BME280;63318;52.406;13.416;2023-04-03T02:06:45;102696.52;;;0.11;68.54
74790;BME280;63318;52.406;13.416;2023-04-03T02:09:14;102700.22;;;0.09;68.99
74790;BME280;63318;52.406;13.416;2023-04-03T02:11:45;102702.12;;;0.06;69.13
74790;BME280;63318;52.406;13.416;2023-04-03T02:14:14;102698.65;;;0.05;68.73
74790;BME280;63318;52.406;13.416;2023-04-03T02:16:43;102698.09;;;0.03;69.25
74790;BME280;63318;52.406;13.416;2023-04-03T02:19:11;102697.85;;;0.02;69.16
74790;BME280;63318;52.406;13.416;2023-04-03T02:21:40;102696.83;;;0.01;69.09
74790;BME280;63318;52.406;13.416;2023-04-03T02:24:09;102700.98;;;-0.00;69.41
74790;BME280;63318;52.406;13.416;2023-04-03T02:26:38;102699.22;;;-0.01;69.22
74790;BME280;63318;52.406;13.416;2023-04-03T02:29:06;102698.97;;;-0.02;69.34
74790;BME280;63318;52.406;13.416;2023-04-03T02:31:34;102700.65;;;-0.05;69.43
74790;BME280;63318;52.406;13.416;2023-04-03T02:34:03;102700.41;;;-0.06;69.24
74790;BME280;63318;52.406;13.416;2023-04-03T02:36:32;102703.54;;;-0.06;69.02
74790;BME280;63318;52.406;13.416;2023-04-03T02:39:00;102703.14;;;-0.05;69.43
74790;BME280;63318;52.406;13.416;2023-04-03T02:41:29;102709.63;;;-0.05;69.73
74790;BME280;63318;52.406;13.416;2023-04-03T02:43:58;102713.34;;;-0.06;69.67
74790;BME280;63318;52.406;13.416;2023-04-03T02:46:26;102718.19;;;-0.07;69.86
74790;BME280;63318;52.406;13.416;2023-04-03T02:48:55;102721.55;;;-0.08;69.88
74790;BME280;63318;52.406;13.416;2023-04-03T02:51:23;102726.27;;;-0.09;70.04
74790;BME280;63318;52.406;13.416;2023-04-03T02:53:52;102729.91;;;-0.11;70.12
74790;BME280;63318;52.406;13.416;2023-04-03T02:56:20;102727.99;;;-0.12;69.82
74790;BME280;63318;52.406;13.416;2023-04-03T02:58:51;102733.20;;;-0.13;69.97
74790;BME280;63318;52.406;13.416;2023-04-03T03:01:19;102734.34;;;-0.12;70.36
74790;BME280;63318;52.406;13.416;2023-04-03T03:03:48;102736.88;;;-0.12;70.29
74790;BME280;63318;52.406;13.416;2023-04-03T03:06:18;102734.76;;;-0.12;70.30
74790;BME280;63318;52.406;13.416;2023-04-03T03:08:47;102735.75;;;-0.13;70.14
74790;BME280;63318;52.406;13.416;2023-04-03T03:11:15;102730.20;;;-0.14;70.37
74790;BME280;63318;52.406;13.416;2023-04-03T03:13:44;102733.13;;;-0.14;70.64
74790;BME280;63318;52.406;13.416;2023-04-03T03:16:12;102732.86;;;-0.15;70.49
74790;BME280;63318;52.406;13.416;2023-04-03T03:18:40;102735.05;;;-0.17;70.40
74790;BME280;63318;52.406;13.416;2023-04-03T03:21:11;102740.55;;;-0.17;70.52
74790;BME280;63318;52.406;13.416;2023-04-03T03:23:39;102741.12;;;-0.17;70.45
74790;BME280;63318;52.406;13.416;2023-04-03T03:26:10;102743.23;;;-0.18;70.49
74790;BME280;63318;52.406;13.416;2023-04-03T03:28:39;102747.08;;;-0.21;71.06
74790;BME280;63318;52.406;13.416;2023-04-03T03:31:08;102749.67;;;-0.22;70.82
74790;BME280;63318;52.406;13.416;2023-04-03T03:33:37;102750.42;;;-0.24;71.25
74790;BME280;63318;52.406;13.416;2023-04-03T03:36:06;102748.90;;;-0.28;70.84
74790;BME280;63318;52.406;13.416;2023-04-03T03:38:35;102751.73;;;-0.30;71.10
74790;BME280;63318;52.406;13.416;2023-04-03T03:41:04;102753.13;;;-0.33;71.03
74790;BME280;63318;52.406;13.416;2023-04-03T03:43:34;102755.80;;;-0.36;71.18
74790;BME280;63318;52.406;13.416;2023-04-03T03:46:02;102753.46;;;-0.40;71.40
74790;BME280;63318;52.406;13.416;2023-04-03T03:48:31;102753.52;;;-0.44;71.44
74790;BME280;63318;52.406;13.416;2023-04-03T03:50:59;102754.58;;;-0.47;71.25
74790;BME280;63318;52.406;13.416;2023-04-03T03:53:27;102756.98;;;-0.51;71.59
74790;BME280;63318;52.406;13.416;2023-04-03T03:55:57;102754.41;;;-0.55;71.70
74790;BME280;63318;52.406;13.416;2023-04-03T03:58:25;102752.09;;;-0.59;71.95
74790;BME280;63318;52.406;13.416;2023-04-03T04:00:54;102753.33;;;-0.62;71.77
74790;BME280;63318;52.406;13.416;2023-04-03T04:03:24;102752.13;;;-0.64;71.88
74790;BME280;63318;52.406;13.416;2023-04-03T04:05:53;102752.92;;;-0.69;71.76
74790;BME280;63318;52.406;13.416;2023-04-03T04:08:21;102752.13;;;-0.72;72.10
74790;BME280;63318;52.406;13.416;2023-04-03T04:10:50;102752.97;;;-0.75;72.09
74790;BME280;63318;52.406;13.416;2023-04-03T04:13:19;102752.02;;;-0.78;71.99
74790;BME280;63318;52.406;13.416;2023-04-03T04:15:47;102756.45;;;-0.81;72.11
74790;BME280;63318;52.406;13.416;2023-04-03T04:18:15;102754.26;;;-0.84;72.27
74790;BME280;63318;52.406;13.416;2023-04-03T04:20:46;102754.35;;;-0.87;72.22
74790;BME280;63318;52.406;13.416;2023-04-03T04:23:15;102753.88;;;-0.89;72.54
74790;BME280;63318;52.406;13.416;2023-04-03T04:25:45;102754.95;;;-0.91;72.60
74790;BME280;63318;52.406;13.416;2023-04-03T04:28:14;102758.60;;;-0.93;72.67
74790;BME280;63318;52.406;13.416;2023-04-03T04:30:43;102757.06;;;-0.96;72.78
74790;BME280;63318;52.406;13.416;2023-04-03T04:33:11;102762.45;;;-0.97;72.51
74790;BME280;63318;52.406;13.416;2023-04-03T04:35:41;102766.06;;;-0.99;72.83
74790;BME280;63318;52.406;13.416;2023-04-03T04:38:11;102765.40;;;-0.99;72.77
74790;BME280;63318;52.406;13.416;2023-04-03T04:40:39;102767.54;;;-1.01;72.86
74790;BME280;63318;52.406;13.416;2023-04-03T04:43:07;102767.41;;;-1.01;72.37
74790;BME280;63318;52.406;13.416;2023-04-03T04:45:36;102772.55;;;-1.00;72.36
74790;BME280;63318;52.406;13.416;2023-04-03T04:48:05;102772.48;;;-0.99;73.04
74790;BME280;63318;52.406;13.416;2023-04-03T04:50:33;102773.04;;;-0.99;73.15
74790;BME280;63318;52.406;13.416;2023-04-03T04:53:02;102780.53;;;-1.00;72.68
74790;BME280;63318;52.406;13.416;2023-04-03T04:55:31;102783.77;;;-0.99;72.45
74790;BME280;63318;52.406;13.416;2023-04-03T04:57:59;102784.95;;;-0.98;72.72
74790;BME280;63318;52.406;13.416;2023-04-03T05:00:28;102787.25;;;-0.98;72.58
74790;BME280;63318;52.406;13.416;2023-04-03T05:02:56;102784.15;;;-0.97;73.18
74790;BME280;63318;52.406;13.416;2023-04-03T05:05:25;102786.98;;;-0.97;72.84
74790;BME280;63318;52.406;13.416;2023-04-03T05:07:53;102788.73;;;-0.96;73.24
74790;BME280;63318;52.406;13.416;2023-04-03T05:10:21;102784.11;;;-0.95;73.27
74790;BME280;63318;52.406;13.416;2023-04-03T05:12:51;102785.91;;;-0.93;72.88
74790;BME280;63318;52.406;13.416;2023-04-03T05:15:19;102788.52;;;-0.90;73.29
74790;BME280;63318;52.406;13.416;2023-04-03T05:17:48;102792.12;;;-0.88;73.29
74790;BME280;63318;52.406;13.416;2023-04-03T05:20:17;102793.23;;;-0.87;73.27
74790;BME280;63318;52.406;13.416;2023-04-03T05:22:45;102790.26;;;-0.84;73.66
74790;BME280;63318;52.406;13.416;2023-04-03T05:25:14;102791.55;;;-0.81;73.16
74790;BME280;63318;52.406;13.416;2023-04-03T05:27:43;102793.88;;;-0.77;73.41
74790;BME280;63318;52.406;13.416;2023-04-03T05:30:14;102794.73;;;-0.72;73.19
74790;BME280;63318;52.406;13.416;2023-04-03T05:32:43;102795.80;;;-0.66;73.41
74790;BME280;63318;52.406;13.416;2023-04-03T05:35:12;102792.69;;;-0.60;73.10
74790;BME280;63318;52.406;13.416;2023-04-03T05:37:40;102793.17;;;-0.55;73.17
74790;BME280;63318;52.406;13.416;2023-04-03T05:40:10;102800.07;;;-0.47;73.49
74790;BME280;63318;52.406;13.416;2023-04-03T05:42:39;102804.61;;;-0.40;73.19
74790;BME280;63318;52.406;13.416;2023-04-03T05:45:08;102802.73;;;-0.32;73.37
74790;BME280;63318;52.406;13.416;2023-04-03T05:47:37;102810.29;;;-0.22;73.03
74790;BME280;63318;52.406;13.416;2023-04-03T05:50:07;102810.16;;;-0.12;73.67
74790;BME280;63318;52.406;13.416;2023-04-03T05:52:38;102813.36;;;-0.01;73.28
74790;BME280;63318;52.406;13.416;2023-04-03T05:55:09;102812.77;;;0.12;73.12
74790;BME280;63318;52.406;13.416;2023-04-03T05:57:38;102813.18;;;0.26;73.03
74790;BME280;63318;52.406;13.416;2023-04-03T06:00:11;102816.17;;;0.41;72.84
74790;BME280;63318;52.406;13.416;2023-04-03T06:02:42;102814.98;;;0.57;72.80
74790;BME280;63318;52.406;13.416;2023-04-03T06:05:11;102818.10;;;0.75;72.31
74790;BME280;63318;52.406;13.416;2023-04-03T06:07:40;102815.04;;;0.92;72.54
74790;BME280;63318;52.406;13.416;2023-04-03T06:10:22;102816.33;;;1.10;71.99
74790;BME280;63318;52.406;13.416;2023-04-03T06:12:51;102822.88;;;1.29;71.55
74790;BME280;63318;52.406;13.416;2023-04-03T06:15:20;102824.95;;;1.47;71.49
74790;BME280;63318;52.406;13.416;2023-04-03T06:17:49;102825.85;;;1.66;71.31
74790;BME280;63318;52.406;13.416;2023-04-03T06:20:18;102824.08;;;1.84;71.04
74790;BME280;63318;52.406;13.416;2023-04-03T06:22:47;102823.03;;;2.01;70.69
74790;BME280;63318;52.406;13.416;2023-04-03T06:25:16;102822.73;;;2.19;70.23
74790;BME280;63318;52.406;13.416;2023-04-03T06:27:46;102822.95;;;2.35;69.60
74790;BME280;63318;52.406;13.416;2023-04-03T06:30:15;102827.81;;;2.50;69.31
74790;BME280;63318;52.406;13.416;2023-04-03T06:32:43;102824.39;;;2.66;69.20
74790;BME280;63318;52.406;13.416;2023-04-03T06:35:12;102828.94;;;2.84;69.03
74790;BME280;63318;52.406;13.416;2023-04-03T06:37:41;102826.49;;;3.01;68.53
74790;BME280;63318;52.406;13.416;2023-04-03T06:40:19;102833.09;;;3.16;67.88
74790;BME280;63318;52.406;13.416;2023-04-03T06:42:52;102831.86;;;3.32;67.96
74790;BME280;63318;52.406;13.416;2023-04-03T06:45:20;102835.83;;;3.48;67.53
74790;BME280;63318;52.406;13.416;2023-04-03T06:47:49;102836.98;;;3.63;67.10
74790;BME280;63318;52.406;13.416;2023-04-03T06:50:18;102839.59;;;3.78;66.52
74790;BME280;63318;52.406;13.416;2023-04-03T06:52:46;102843.63;;;3.89;65.69
74790;BME280;63318;52.406;13.416;2023-04-03T06:55:15;102846.89;;;3.99;64.73
74790;BME280;63318;52.406;13.416;2023-04-03T06:57:44;102852.02;;;4.11;64.28
74790;BME280;63318;52.406;13.416;2023-04-03T07:00:18;102852.94;;;4.19;63.61
74790;BME280;63318;52.406;13.416;2023-04-03T07:02:47;102853.19;;;4.29;63.55
74790;BME280;63318;52.406;13.416;2023-04-03T07:05:17;102854.92;;;4.42;63.87
74790;BME280;63318;52.406;13.416;2023-04-03T07:07:46;102856.98;;;4.52;63.63
74790;BME280;63318;52.406;13.416;2023-04-03T07:10:15;102852.59;;;4.64;63.09
74790;BME280;63318;52.406;13.416;2023-04-03T07:12:45;102855.94;;;4.73;62.70
74790;BME280;63318;52.406;13.416;2023-04-03T07:15:14;102857.20;;;4.70;62.65
74790;BME280;63318;52.406;13.416;2023-04-03T07:17:44;102860.98;;;4.75;62.06
74790;BME280;63318;52.406;13.416;2023-04-03T07:20:13;102862.56;;;4.83;60.53
74790;BME280;63318;52.406;13.416;2023-04-03T07:22:41;102859.84;;;4.92;60.47
74790;BME280;63318;52.406;13.416;2023-04-03T07:25:13;102859.84;;;4.92;60.47
74790;BME280;63318;52.406;13.416;2023-04-03T07:27:42;102865.74;;;4.86;60.53
74790;BME280;63318;52.406;13.416;2023-04-03T07:30:14;102866.81;;;4.93;60.96
74790;BME280;63318;52.406;13.416;2023-04-03T07:32:42;102869.59;;;5.07;60.76
74790;BME280;63318;52.406;13.416;2023-04-03T07:35:12;102873.58;;;5.05;60.23
74790;BME280;63318;52.406;13.416;2023-04-03T07:37:43;102872.84;;;5.09;60.35
74790;BME280;63318;52.406;13.416;2023-04-03T07:40:12;102872.11;;;5.26;58.93
74790;BME280;63318;52.406;13.416;2023-04-03T07:42:42;102876.67;;;5.30;57.78
74790;BME280;63318;52.406;13.416;2023-04-03T07:45:12;102875.98;;;5.34;58.56
74790;BME280;63318;52.406;13.416;2023-04-03T07:47:41;102879.55;;;5.40;57.90
74790;BME280;63318;52.406;13.416;2023-04-03T07:50:10;102882.66;;;5.45;57.09
74790;BME280;63318;52.406;13.416;2023-04-03T07:52:39;102881.61;;;5.53;57.74
74790;BME280;63318;52.406;13.416;2023-04-03T07:55:09;102875.61;;;5.68;57.17
74790;BME280;63318;52.406;13.416;2023-04-03T07:57:37;102879.95;;;5.83;56.67
74790;BME280;63318;52.406;13.416;2023-04-03T08:00:10;102876.25;;;5.99;56.64
74790;BME280;63318;52.406;13.416;2023-04-03T08:02:39;102878.08;;;6.09;56.16
74790;BME280;63318;52.406;13.416;2023-04-03T08:05:09;102881.56;;;6.18;56.07
74790;BME280;63318;52.406;13.416;2023-04-03T08:07:39;102881.98;;;6.25;55.05
74790;BME280;63318;52.406;13.416;2023-04-03T08:10:08;102879.68;;;6.42;55.81
74790;BME280;63318;52.406;13.416;2023-04-03T08:12:39;102881.77;;;6.58;55.41
74790;BME280;63318;52.406;13.416;2023-04-03T08:15:10;102884.08;;;6.62;55.35
74790;BME280;63318;52.406;13.416;2023-04-03T08:17:39;102879.83;;;6.59;55.04
74790;BME280;63318;52.406;13.416;2023-04-03T08:20:10;102875.50;;;6.48;55.37
74790;BME280;63318;52.406;13.416;2023-04-03T08:22:39;102876.50;;;6.32;55.66
74790;BME280;63318;52.406;13.416;2023-04-03T08:25:09;102875.40;;;6.19;55.74
74790;BME280;63318;52.406;13.416;2023-04-03T08:27:37;102877.04;;;6.10;56.16
74790;BME280;63318;52.406;13.416;2023-04-03T08:30:08;102880.48;;;6.05;54.70
74790;BME280;63318;52.406;13.416;2023-04-03T08:32:38;102876.66;;;5.89;55.17
74790;BME280;63318;52.406;13.416;2023-04-03T08:35:08;102878.98;;;5.79;55.58
74790;BME280;63318;52.406;13.416;2023-04-03T08:37:38;102881.73;;;5.75;54.40
74790;BME280;63318;52.406;13.416;2023-04-03T08:40:15;102877.89;;;5.64;54.76
74790;BME280;63318;52.406;13.416;2023-04-03T08:42:53;102874.64;;;5.56;55.35
74790;BME280;63318;52.406;13.416;2023-04-03T08:45:31;102866.82;;;5.48;55.86
74790;BME280;63318;52.406;13.416;2023-04-03T08:48:11;102868.94;;;5.42;56.39
74790;BME280;63318;52.406;13.416;2023-04-03T08:50:42;102864.23;;;5.37;55.68
74790;BME280;63318;52.406;13.416;2023-04-03T08:53:30;102872.78;;;5.36;56.32
74790;BME280;63318;52.406;13.416;2023-04-03T08:56:04;102874.36;;;5.59;55.88
74790;BME280;63318;52.406;13.416;2023-04-03T08:58:44;102874.80;;;5.96;55.57
74790;BME280;63318;52.406;13.416;2023-04-03T09:01:21;102873.02;;;6.24;54.21
74790;BME280;63318;52.406;13.416;2023-04-03T09:03:51;102871.45;;;6.25;52.00
74790;BME280;63318;52.406;13.416;2023-04-03T09:06:22;102867.46;;;6.18;52.58
74790;BME280;63318;52.406;13.416;2023-04-03T09:09:02;102862.91;;;6.24;53.38
74790;BME280;63318;52.406;13.416;2023-04-03T09:11:46;102865.59;;;6.50;53.02
74790;BME280;63318;52.406;13.416;2023-04-03T09:14:25;102861.99;;;6.71;52.47
74790;BME280;63318;52.406;13.416;2023-04-03T09:16:57;102859.01;;;6.83;53.02
74790;BME280;63318;52.406;13.416;2023-04-03T09:19:34;102862.27;;;7.03;50.65
74790;BME280;63318;52.406;13.416;2023-04-03T09:22:13;102862.36;;;7.21;51.47
74790;BME280;63318;52.406;13.416;2023-04-03T09:24:47;102869.41;;;7.30;50.26
74790;BME280;63318;52.406;13.416;2023-04-03T09:27:16;102866.05;;;7.14;49.81
74790;BME280;63318;52.406;13.416;2023-04-03T09:29:45;102867.58;;;6.99;50.70
74790;BME280;63318;52.406;13.416;2023-04-03T09:32:21;102868.92;;;6.89;50.92
74790;BME280;63318;52.406;13.416;2023-04-03T09:34:55;102871.30;;;6.79;51.31
74790;BME280;63318;52.406;13.416;2023-04-03T09:37:39;102873.77;;;6.74;51.57
74790;BME280;63318;52.406;13.416;2023-04-03T09:40:30;102867.65;;;6.80;51.55
74790;BME280;63318;52.406;13.416;2023-04-03T09:46:20;102862.35;;;6.99;51.50
74790;BME280;63318;52.406;13.416;2023-04-03T09:48:57;102855.88;;;7.08;51.30
74790;BME280;63318;52.406;13.416;2023-04-03T09:51:33;102855.84;;;7.17;51.19
74790;BME280;63318;52.406;13.416;2023-04-03T09:54:02;102858.18;;;7.23;50.59
74790;BME280;63318;52.406;13.416;2023-04-03T09:56:53;102858.03;;;7.36;49.46
74790;BME280;63318;52.406;13.416;2023-04-03T09:59:21;102853.41;;;7.44;50.43
74790;BME280;63318;52.406;13.416;2023-04-03T10:02:03;102848.76;;;7.48;50.38
74790;BME280;63318;52.406;13.416;2023-04-03T10:04:40;102849.44;;;7.48;49.49
74790;BME280;63318;52.406;13.416;2023-04-03T10:07:41;102852.77;;;7.48;48.30
74790;BME280;63318;52.406;13.416;2023-04-03T10:10:31;102849.65;;;7.43;49.00
74790;BME280;63318;52.406;13.416;2023-04-03T10:13:15;102849.30;;;7.41;49.27
74790;BME280;63318;52.406;13.416;2023-04-03T10:16:10;102851.42;;;7.36;49.27
74790;BME280;63318;52.406;13.416;2023-04-03T10:21:57;102843.58;;;7.17;49.32
74790;BME280;63318;52.406;13.416;2023-04-03T10:24:31;102840.27;;;7.16;50.31
74790;BME280;63318;52.406;13.416;2023-04-03T10:27:16;102842.74;;;7.13;49.08
74790;BME280;63318;52.406;13.416;2023-04-03T10:33:36;102838.84;;;7.02;48.97
74790;BME280;63318;52.406;13.416;2023-04-03T10:42:35;102836.77;;;7.10;48.32
74790;BME280;63318;52.406;13.416;2023-04-03T10:45:30;102830.16;;;7.04;48.24
74790;BME280;63318;52.406;13.416;2023-04-03T10:54:55;102821.27;;;7.49;49.27
74790;BME280;63318;52.406;13.416;2023-04-03T11:03:46;102814.27;;;7.33;48.38
74790;BME280;63318;52.406;13.416;2023-04-03T11:15:39;102803.42;;;7.26;50.03
74790;BME280;63318;52.406;13.416;2023-04-03T11:21:14;102798.65;;;7.31;49.30
74790;BME280;63318;52.406;13.416;2023-04-03T11:23:46;102802.54;;;7.33;48.86
74790;BME280;63318;52.406;13.416;2023-04-03T11:26:29;102802.70;;;7.33;48.75
74790;BME280;63318;52.406;13.416;2023-04-03T11:29:09;102797.16;;;7.31;48.50
74790;BME280;63318;52.406;13.416;2023-04-03T11:34:54;102795.20;;;7.13;48.93
74790;BME280;63318;52.406;13.416;2023-04-03T11:37:31;102798.02;;;7.14;49.28
74790;BME280;63318;52.406;13.416;2023-04-03T11:40:05;102797.68;;;7.13;48.60
74790;BME280;63318;52.406;13.416;2023-04-03T11:42:38;102795.35;;;7.15;49.26
74790;BME280;63318;52.406;13.416;2023-04-03T11:45:33;102791.71;;;7.17;49.11
74790;BME280;63318;52.406;13.416;2023-04-03T11:48:04;102794.61;;;7.20;48.91
74790;BME280;63318;52.406;13.416;2023-04-03T11:50:42;102796.81;;;7.22;47.98
74790;BME280;63318;52.406;13.416;2023-04-03T11:53:36;102796.38;;;7.21;48.53
74790;BME280;63318;52.406;13.416;2023-04-03T11:56:33;102795.27;;;7.26;49.69
74790;BME280;63318;52.406;13.416;2023-04-03T11:59:25;102796.47;;;7.35;48.75
74790;BME280;63318;52.406;13.416;2023-04-03T12:01:55;102794.85;;;7.40;49.31
74790;BME280;63318;52.406;13.416;2023-04-03T12:04:26;102793.44;;;7.45;49.58
74790;BME280;63318;52.406;13.416;2023-04-03T12:07:11;102788.98;;;7.54;49.77
74790;BME280;63318;52.406;13.416;2023-04-03T12:10:18;102788.20;;;7.62;49.16
74790;BME280;63318;52.406;13.416;2023-04-03T12:13:01;102782.73;;;7.64;48.20
74790;BME280;63318;52.406;13.416;2023-04-03T12:15:53;102783.79;;;7.63;47.66
74790;BME280;63318;52.406;13.416;2023-04-03T12:18:58;102789.05;;;7.61;48.32
74790;BME280;63318;52.406;13.416;2023-04-03T12:22:08;102789.55;;;7.56;48.20
74790;BME280;63318;52.406;13.416;2023-04-03T12:24:37;102787.65;;;7.54;49.11
74790;BME280;63318;52.406;13.416;2023-04-03T12:27:16;102789.56;;;7.52;49.77
74790;BME280;63318;52.406;13.416;2023-04-03T12:29:50;102786.94;;;7.54;49.69
74790;BME280;63318;52.406;13.416;2023-04-03T12:32:31;102785.34;;;7.58;49.06
74790;BME280;63318;52.406;13.416;2023-04-03T12:35:13;102776.05;;;7.51;48.99
74790;BME280;63318;52.406;13.416;2023-04-03T12:38:19;102779.48;;;7.47;46.90
74790;BME280;63318;52.406;13.416;2023-04-03T12:40:55;102773.57;;;7.40;47.31
74790;BME280;63318;52.406;13.416;2023-04-03T12:44:03;102772.79;;;7.36;47.89
74790;BME280;63318;52.406;13.416;2023-04-03T12:46:42;102769.84;;;7.34;47.66
74790;BME280;63318;52.406;13.416;2023-04-03T12:49:33;102769.33;;;7.40;48.27
74790;BME280;63318;52.406;13.416;2023-04-03T12:52:04;102763.51;;;7.49;48.73
74790;BME280;63318;52.406;13.416;2023-04-03T12:54:37;102761.50;;;7.47;46.76
74790;BME280;63318;52.406;13.416;2023-04-03T12:57:18;102760.67;;;7.45;47.24
74790;BME280;63318;52.406;13.416;2023-04-03T12:59:47;102760.38;;;7.44;47.50
74790;BME280;63318;52.406;13.416;2023-04-03T13:02:24;102760.20;;;7.43;47.52
74790;BME280;63318;52.406;13.416;2023-04-03T13:04:57;102757.95;;;7.43;47.90
74790;BME280;63318;52.406;13.416;2023-04-03T13:07:29;102753.32;;;7.45;47.66
74790;BME280;63318;52.406;13.416;2023-04-03T13:10:01;102757.89;;;7.41;47.57
74790;BME280;63318;52.406;13.416;2023-04-03T13:12:30;102754.00;;;7.31;46.48
74790;BME280;63318;52.406;13.416;2023-04-03T13:15:01;102757.08;;;7.25;47.67
74790;BME280;63318;52.406;13.416;2023-04-03T13:17:31;102756.65;;;7.26;47.78
74790;BME280;63318;52.406;13.416;2023-04-03T13:20:11;102759.73;;;7.23;47.50
74790;BME280;63318;52.406;13.416;2023-04-03T13:22:48;102754.12;;;7.17;47.31
74790;BME280;63318;52.406;13.416;2023-04-03T13:25:22;102752.00;;;7.19;47.71
74790;BME280;63318;52.406;13.416;2023-04-03T13:27:51;102750.95;;;7.26;47.74
74790;BME280;63318;52.406;13.416;2023-04-03T13:30:35;102750.36;;;7.34;48.09
74790;BME280;63318;52.406;13.416;2023-04-03T13:33:06;102750.16;;;7.37;48.14
74790;BME280;63318;52.406;13.416;2023-04-03T13:35:47;102749.77;;;7.33;47.90
74790;BME280;63318;52.406;13.416;2023-04-03T13:38:27;102745.65;;;7.29;48.16
74790;BME280;63318;52.406;13.416;2023-04-03T13:40:58;102739.41;;;7.29;47.92
74790;BME280;63318;52.406;13.416;2023-04-03T13:43:30;102735.09;;;7.34;48.56
74790;BME280;63318;52.406;13.416;2023-04-03T13:48:49;102734.01;;;7.38;47.89
74790;BME280;63318;52.406;13.416;2023-04-03T13:51:24;102735.04;;;7.33;47.50
74790;BME280;63318;52.406;13.416;2023-04-03T13:53:57;102732.63;;;7.23;47.92
74790;BME280;63318;52.406;13.416;2023-04-03T13:56:33;102732.73;;;7.16;48.52
74790;BME280;63318;52.406;13.416;2023-04-03T13:59:19;102732.70;;;7.11;48.47
74790;BME280;63318;52.406;13.416;2023-04-03T14:01:53;102734.36;;;7.07;48.58
74790;BME280;63318;52.406;13.416;2023-04-03T14:04:24;102728.30;;;7.02;48.80